Time,TemperatureF,DewpointF,PressureIn,WindDirection,WindDirectionDegrees,WindSpeedMPH,WindSpeedGustMPH,Humidity,HourlyPrecipIn,Conditions,Clouds,dailyrainin,SoftwareType,DateUTC
2013-06-09 00:00:00,68.1,61.9,30.06,South,180,4.3,4.3,80,0.08,,,0.37,VWS V14.01,2013-06-09 04:00:00,
2013-06-09 00:01:00,60.2,60.2,30.12,SSE,158,0.0,0.0,100,0.00,,,0.00,VWS V14.01,2013-06-09 04:01:00,
2013-06-09 00:06:00,60.4,60.4,30.12,SSE,158,0.0,0.0,100,0.00,,,0.00,VWS V14.01,2013-06-09 04:06:00,
2013-06-09 00:11:00,60.2,60.2,30.15,SSE,158,0.0,0.0,100,0.00,,,0.00,VWS V14.01,2013-06-09 04:11:00,
2013-06-09 00:15:00,60.4,60.4,30.12,SSE,158,0.0,0.0,100,0.00,,,0.00,VWS V14.01,2013-06-09 04:15:00,
2013-06-09 00:16:00,60.2,60.2,30.15,SSE,158,0.0,0.0,100,0.00,,,0.00,VWS V14.01,2013-06-09 04:16:00,
2013-06-09 00:21:00,59.8,59.8,30.15,SSE,158,0.0,0.0,100,0.00,,,0.00,VWS V14.01,2013-06-09 04:21:00,
2013-06-09 00:26:00,59.7,59.7,30.15,SSE,158,0.0,0.0,100,0.00,,,0.00,VWS V14.01,2013-06-09 04:26:00,
2013-06-09 00:30:00,59.7,59.7,30.15,SSE,158,0.0,0.0,100,0.00,,,0.00,VWS V14.01,2013-06-09 04:30:00,
2013-06-09 00:32:00,59.8,59.8,30.15,SSW,202,0.0,0.0,100,0.00,,,0.00,VWS V14.01,2013-06-09 04:32:00,
2013-06-09 00:37:00,59.7,59.7,30.15,SSW,202,0.0,0.0,100,0.00,,,0.00,VWS V14.01,2013-06-09 04:37:00,
2013-06-09 00:42:00,59.7,59.7,30.15,South,180,0.0,0.0,100,0.00,,,0.00,VWS V14.01,2013-06-09 04:42:00,
2013-06-09 00:45:00,59.7,59.7,30.15,South,180,0.0,0.0,100,0.00,,,0.00,VWS V14.01,2013-06-09 04:45:00,
2013-06-09 00:47:00,59.7,59.7,30.15,South,180,0.0,0.0,100,0.00,,,0.00,VWS V14.01,2013-06-09 04:47:00,
2013-06-09 00:52:00,59.7,59.7,30.15,South,180,0.0,0.0,100,0.00,,,0.00,VWS V14.01,2013-06-09 04:52:00,
2013-06-09 00:57:00,59.5,59.5,30.15,South,180,0.0,0.0,100,0.00,,,0.00,VWS V14.01,2013-06-09 04:57:00,
2013-06-09 01:00:00,59.7,59.7,30.15,South,180,0.0,0.0,100,0.00,,,0.00,VWS V14.01,2013-06-09 05:00:00,
2013-06-09 01:02:00,59.7,59.7,30.15,SSW,202,2.2,2.2,100,0.00,,,0.00,VWS V14.01,2013-06-09 05:02:00,
2013-06-09 01:07:00,59.7,59.7,30.15,South,180,1.6,1.6,100,0.00,,,0.00,VWS V14.01,2013-06-09 05:07:00,
2013-06-09 01:12:00,60.0,60.0,30.15,South,180,1.6,1.6,100,0.00,,,0.00,VWS V14.01,2013-06-09 05:12:00,
2013-06-09 01:15:00,59.8,59.8,30.15,South,180,1.6,1.6,100,0.00,,,0.00,VWS V14.01,2013-06-09 05:15:00,
2013-06-09 01:17:00,59.8,59.8,30.15,South,180,1.6,1.6,100,0.00,,,0.00,VWS V14.01,2013-06-09 05:17:00,
2013-06-09 01:22:00,60.0,60.0,30.15,NNW,338,2.0,2.0,100,0.00,,,0.00,VWS V14.01,2013-06-09 05:22:00,
2013-06-09 01:27:00,60.2,60.2,30.15,NNW,338,0.9,0.9,100,0.00,,,0.00,VWS V14.01,2013-06-09 05:27:00,
2013-06-09 01:30:00,60.2,60.2,30.15,NNW,338,0.9,0.9,100,0.00,,,0.00,VWS V14.01,2013-06-09 05:30:00,
2013-06-09 01:32:00,60.5,60.6,30.15,NNE,22,2.0,2.0,100,0.00,,,0.00,VWS V14.01,2013-06-09 05:32:00,
2013-06-09 01:37:00,60.5,60.6,30.15,SSW,202,0.0,0.0,100,0.00,,,0.00,VWS V14.01,2013-06-09 05:37:00,
2013-06-09 01:42:00,60.5,60.6,30.15,SSW,202,0.0,0.0,100,0.00,,,0.00,VWS V14.01,2013-06-09 05:42:00,
2013-06-09 01:45:00,60.5,60.6,30.15,SSW,202,0.0,0.0,100,0.00,,,0.00,VWS V14.01,2013-06-09 05:45:00,
2013-06-09 01:47:00,60.9,60.9,30.15,SSW,202,0.0,0.0,100,0.00,,,0.00,VWS V14.01,2013-06-09 05:47:00,
2013-06-09 01:52:00,61.1,61.1,30.15,SSE,158,1.3,1.3,100,0.00,,,0.00,VWS V14.01,2013-06-09 05:52:00,
2013-06-09 01:57:00,61.1,61.1,30.15,SSE,158,1.3,1.3,100,0.00,,,0.00,VWS V14.01,2013-06-09 05:57:00,
2013-06-09 02:00:00,60.9,60.9,30.15,SSE,158,1.3,1.3,100,0.00,,,0.00,VWS V14.01,2013-06-09 06:00:00,
2013-06-09 02:02:00,61.1,61.1,30.15,NNW,338,0.0,0.0,100,0.00,,,0.00,VWS V14.01,2013-06-09 06:02:00,
2013-06-09 02:07:00,61.3,61.3,30.15,WNW,292,1.3,1.3,100,0.00,,,0.00,VWS V14.01,2013-06-09 06:07:00,
2013-06-09 02:12:00,61.3,61.3,30.15,SSW,202,0.0,0.0,100,0.00,,,0.00,VWS V14.01,2013-06-09 06:12:00,
2013-06-09 02:15:00,61.3,61.3,30.15,SSW,202,0.0,0.0,100,0.00,,,0.00,VWS V14.01,2013-06-09 06:15:00,
2013-06-09 02:17:00,61.3,61.3,30.15,NNW,338,0.0,0.0,100,0.00,,,0.00,VWS V14.01,2013-06-09 06:17:00,
2013-06-09 02:22:00,61.3,61.3,30.15,North,0,1.3,1.3,100,0.00,,,0.00,VWS V14.01,2013-06-09 06:22:00,
2013-06-09 02:27:00,61.3,61.3,30.15,SW,225,0.0,0.0,100,0.00,,,0.00,VWS V14.01,2013-06-09 06:27:00,
2013-06-09 02:30:00,61.3,61.3,30.15,NNE,22,2.2,2.2,100,0.00,,,0.00,VWS V14.01,2013-06-09 06:30:00,
2013-06-09 02:32:00,61.3,61.3,30.15,NNW,338,3.6,3.6,100,0.00,,,0.00,VWS V14.01,2013-06-09 06:32:00,
2013-06-09 02:37:00,61.5,61.5,30.15,WNW,292,2.7,2.7,100,0.00,,,0.00,VWS V14.01,2013-06-09 06:37:00,
2013-06-09 02:42:00,61.5,61.5,30.12,WNW,292,0.0,0.0,100,0.00,,,0.00,VWS V14.01,2013-06-09 06:42:00,
2013-06-09 02:45:00,61.5,61.5,30.15,WNW,292,0.0,0.0,100,0.00,,,0.00,VWS V14.01,2013-06-09 06:45:00,
2013-06-09 02:47:00,61.5,61.5,30.12,WNW,292,0.0,0.0,100,0.00,,,0.00,VWS V14.01,2013-06-09 06:47:00,
2013-06-09 02:52:00,61.3,61.3,30.12,WNW,292,0.0,0.0,100,0.00,,,0.00,VWS V14.01,2013-06-09 06:52:00,
2013-06-09 02:57:00,61.5,61.5,30.12,WNW,292,0.0,0.0,100,0.00,,,0.00,VWS V14.01,2013-06-09 06:57:00,
2013-06-09 03:00:00,61.5,61.5,30.12,WNW,292,0.0,0.0,100,0.00,,,0.00,VWS V14.01,2013-06-09 07:00:00,
2013-06-09 03:02:00,61.5,61.5,30.12,NNW,338,2.0,2.0,100,0.00,,,0.00,VWS V14.01,2013-06-09 07:02:00,
2013-06-09 03:07:00,61.5,61.5,30.12,North,0,0.0,0.0,100,0.00,,,0.00,VWS V14.01,2013-06-09 07:07:00,
2013-06-09 03:12:00,61.5,61.5,30.12,NNW,338,2.5,2.5,100,0.00,,,0.00,VWS V14.01,2013-06-09 07:12:00,
2013-06-09 03:17:00,61.3,61.3,30.15,WSW,248,0.0,0.0,100,0.00,,,0.00,VWS V14.01,2013-06-09 07:17:00,
2013-06-09 03:22:00,61.5,61.5,30.15,WSW,248,0.0,0.0,100,0.00,,,0.00,VWS V14.01,2013-06-09 07:22:00,
2013-06-09 03:27:00,61.5,61.5,30.12,WSW,248,0.0,0.0,100,0.00,,,0.00,VWS V14.01,2013-06-09 07:27:00,
2013-06-09 03:30:00,61.5,61.5,30.15,WSW,248,0.0,0.0,100,0.00,,,0.00,VWS V14.01,2013-06-09 07:30:00,
2013-06-09 03:32:00,61.5,61.5,30.12,SSE,158,0.0,0.0,100,0.00,,,0.00,VWS V14.01,2013-06-09 07:32:00,
2013-06-09 03:37:00,61.5,61.5,30.12,SSE,158,0.0,0.0,100,0.00,,,0.00,VWS V14.01,2013-06-09 07:37:00,
2013-06-09 03:42:00,61.5,61.5,30.12,NNW,338,0.0,0.0,100,0.00,,,0.00,VWS V14.01,2013-06-09 07:42:00,
2013-06-09 03:45:00,61.5,61.5,30.12,NNW,338,0.0,0.0,100,0.00,,,0.00,VWS V14.01,2013-06-09 07:45:00,
2013-06-09 03:47:00,61.5,61.5,30.12,NNW,338,0.0,0.0,100,0.00,,,0.00,VWS V14.01,2013-06-09 07:47:00,
2013-06-09 03:52:00,61.6,61.6,30.12,South,180,0.0,0.0,100,0.00,,,0.00,VWS V14.01,2013-06-09 07:52:00,
2013-06-09 03:57:00,61.5,61.5,30.15,South,180,0.0,0.0,100,0.00,,,0.00,VWS V14.01,2013-06-09 07:57:00,
2013-06-09 04:00:00,61.5,61.5,30.12,South,180,0.0,0.0,100,0.00,,,0.00,VWS V14.01,2013-06-09 08:00:00,
2013-06-09 04:02:00,61.5,61.5,30.15,SSW,202,0.0,0.0,100,0.00,,,0.00,VWS V14.01,2013-06-09 08:02:00,
2013-06-09 04:07:00,61.3,61.3,30.15,SSW,202,0.0,0.0,100,0.00,,,0.00,VWS V14.01,2013-06-09 08:07:00,
2013-06-09 04:12:00,61.1,61.1,30.15,SSE,158,0.0,0.0,100,0.00,,,0.00,VWS V14.01,2013-06-09 08:12:00,
2013-06-09 04:15:00,61.3,61.3,30.15,SSW,202,0.0,0.0,100,0.00,,,0.00,VWS V14.01,2013-06-09 08:15:00,
2013-06-09 04:17:00,61.1,61.1,30.15,SSE,158,0.0,0.0,100,0.00,,,0.00,VWS V14.01,2013-06-09 08:17:00,
2013-06-09 04:22:00,60.9,60.9,30.15,SE,135,0.0,0.0,100,0.00,,,0.00,VWS V14.01,2013-06-09 08:22:00,
2013-06-09 04:27:00,60.9,60.9,30.15,SE,135,0.0,0.0,100,0.00,,,0.00,VWS V14.01,2013-06-09 08:27:00,
2013-06-09 04:32:00,60.5,60.6,30.15,SSE,158,0.0,0.0,100,0.00,,,33.99,VWS V14.01,2013-06-09 08:32:00,
2013-06-09 04:37:00,60.4,60.4,30.15,SSE,158,0.0,0.0,100,0.00,,,33.99,VWS V14.01,2013-06-09 08:37:00,
2013-06-09 04:42:00,60.5,60.6,30.12,SSE,158,0.0,0.0,100,0.00,,,33.99,VWS V14.01,2013-06-09 08:42:00,
2013-06-09 04:45:00,60.4,60.4,30.15,SSE,158,0.0,0.0,100,0.00,,,33.99,VWS V14.01,2013-06-09 08:45:00,
2013-06-09 04:47:00,60.5,60.6,30.12,South,180,2.5,2.5,100,0.00,,,33.99,VWS V14.01,2013-06-09 08:47:00,
2013-06-09 04:52:00,60.4,60.4,30.12,South,180,0.0,0.0,100,0.00,,,33.99,VWS V14.01,2013-06-09 08:52:00,
2013-06-09 04:57:00,60.2,60.2,30.15,South,180,0.0,0.0,100,0.00,,,33.99,VWS V14.01,2013-06-09 08:57:00,
2013-06-09 05:00:00,60.2,60.2,30.12,SSE,158,0.0,0.0,100,0.00,,,33.99,VWS V14.01,2013-06-09 09:00:00,
2013-06-09 05:02:00,60.0,60.0,30.15,South,180,0.0,0.0,100,0.00,,,33.99,VWS V14.01,2013-06-09 09:02:00,
2013-06-09 05:07:00,59.8,59.8,30.15,SSE,158,0.0,0.0,100,0.00,,,33.99,VWS V14.01,2013-06-09 09:07:00,
2013-06-09 05:12:00,59.8,59.8,30.15,SSW,202,0.0,0.0,100,0.00,,,33.99,VWS V14.01,2013-06-09 09:12:00,
2013-06-09 05:15:00,59.8,59.8,30.15,SSE,158,0.0,0.0,100,0.00,,,33.99,VWS V14.01,2013-06-09 09:15:00,
2013-06-09 05:17:00,59.8,59.8,30.15,SSW,202,0.0,0.0,100,0.00,,,33.99,VWS V14.01,2013-06-09 09:17:00,
2013-06-09 05:22:00,59.8,59.8,30.15,SSE,158,0.0,0.0,100,0.00,,,33.99,VWS V14.01,2013-06-09 09:22:00,
2013-06-09 05:27:00,59.8,59.8,30.12,SSW,202,0.0,0.0,100,0.00,,,33.99,VWS V14.01,2013-06-09 09:27:00,
2013-06-09 05:30:00,60.0,60.0,30.15,SSW,202,0.0,0.0,100,0.00,,,33.99,VWS V14.01,2013-06-09 09:30:00,
2013-06-09 05:32:00,59.8,59.8,30.12,NNW,338,2.5,2.5,100,0.00,,,33.99,VWS V14.01,2013-06-09 09:32:00,
2013-06-09 05:37:00,60.0,60.0,30.12,NNW,338,2.5,2.5,100,0.00,,,33.99,VWS V14.01,2013-06-09 09:37:00,
2013-06-09 05:42:00,60.2,60.2,30.15,WNW,292,0.9,0.9,100,0.00,,,33.99,VWS V14.01,2013-06-09 09:42:00,
2013-06-09 05:45:00,60.0,60.0,30.12,WNW,292,0.9,0.9,100,0.00,,,33.99,VWS V14.01,2013-06-09 09:45:00,
2013-06-09 05:47:00,60.0,60.0,30.15,South,180,0.0,0.0,100,0.00,,,33.99,VWS V14.01,2013-06-09 09:47:00,
2013-06-09 05:52:00,60.2,60.2,30.15,WSW,248,0.0,0.0,100,0.00,,,33.99,VWS V14.01,2013-06-09 09:52:00,
2013-06-09 05:57:00,60.2,60.2,30.15,SSE,158,0.0,0.0,100,0.00,,,33.99,VWS V14.01,2013-06-09 09:57:00,
2013-06-09 06:00:00,60.2,60.2,30.15,SSE,158,0.0,0.0,100,0.00,,,33.99,VWS V14.01,2013-06-09 10:00:00,
2013-06-09 06:02:00,60.2,60.2,30.15,SSE,158,0.0,0.0,100,0.00,,,33.99,VWS V14.01,2013-06-09 10:02:00,
2013-06-09 06:07:00,60.4,60.4,30.15,SSW,202,0.0,0.0,100,0.00,,,33.99,VWS V14.01,2013-06-09 10:07:00,
2013-06-09 06:12:00,60.5,60.6,30.15,SSE,158,0.0,0.0,100,0.00,,,33.99,VWS V14.01,2013-06-09 10:12:00,
2013-06-09 06:15:00,60.4,60.4,30.15,SSE,158,0.0,0.0,100,0.00,,,33.99,VWS V14.01,2013-06-09 10:15:00,
2013-06-09 06:17:00,60.5,60.6,30.15,SSE,158,0.0,0.0,100,0.00,,,33.99,VWS V14.01,2013-06-09 10:17:00,
2013-06-09 06:22:00,60.7,60.7,30.15,SSE,158,0.0,0.0,100,0.00,,,33.99,VWS V14.01,2013-06-09 10:22:00,
2013-06-09 06:27:00,60.9,60.9,30.15,SSE,158,2.0,2.0,100,0.00,,,33.99,VWS V14.01,2013-06-09 10:27:00,
2013-06-09 06:30:00,60.9,60.9,30.15,SSE,158,2.0,2.0,100,0.00,,,33.99,VWS V14.01,2013-06-09 10:30:00,
2013-06-09 06:32:00,61.1,61.1,30.15,SSE,158,0.0,0.0,100,0.00,,,33.99,VWS V14.01,2013-06-09 10:32:00,
2013-06-09 06:37:00,61.1,61.1,30.15,NNW,338,0.0,0.0,100,0.00,,,33.99,VWS V14.01,2013-06-09 10:37:00,
2013-06-09 06:42:00,61.1,61.1,30.15,SSE,158,0.0,0.0,100,0.00,,,0.00,VWS V14.01,2013-06-09 10:42:00,
2013-06-09 06:45:00,61.1,61.1,30.15,NNW,338,0.0,0.0,100,0.00,,,33.99,VWS V14.01,2013-06-09 10:45:00,
2013-06-09 06:47:00,61.1,61.1,30.15,SE,135,0.0,0.0,100,0.00,,,0.00,VWS V14.01,2013-06-09 10:47:00,
2013-06-09 06:52:00,61.3,61.3,30.15,South,180,0.0,0.0,100,0.00,,,0.00,VWS V14.01,2013-06-09 10:52:00,
2013-06-09 06:57:00,61.3,61.3,30.15,SSW,202,1.6,1.6,100,0.00,,,0.00,VWS V14.01,2013-06-09 10:57:00,
2013-06-09 07:00:00,61.3,61.3,30.15,SSW,202,1.6,1.6,100,0.00,,,0.00,VWS V14.01,2013-06-09 11:00:00,
2013-06-09 07:02:00,61.5,61.5,30.15,West,270,0.0,0.0,100,0.00,,,0.00,VWS V14.01,2013-06-09 11:02:00,
2013-06-09 07:07:00,61.6,61.6,30.15,SSE,158,1.3,1.3,100,0.00,,,0.00,VWS V14.01,2013-06-09 11:07:00,
2013-06-09 07:12:00,61.6,61.6,30.15,SW,225,0.0,0.0,100,0.00,,,0.00,VWS V14.01,2013-06-09 11:12:00,
2013-06-09 07:17:00,62.0,62.0,30.12,WSW,248,1.3,1.3,100,0.00,,,0.00,VWS V14.01,2013-06-09 11:17:00,
2013-06-09 07:22:00,62.2,62.2,30.12,South,180,0.0,0.0,100,0.00,,,0.00,VWS V14.01,2013-06-09 11:22:00,
2013-06-09 07:27:00,62.2,62.2,30.12,East,90,0.0,0.0,100,0.00,,,0.00,VWS V14.01,2013-06-09 11:27:00,
2013-06-09 07:30:00,62.2,62.2,30.12,East,90,0.0,0.0,100,0.00,,,0.00,VWS V14.01,2013-06-09 11:30:00,
2013-06-09 07:31:00,62.2,62.2,30.12,East,90,0.0,0.0,100,0.00,,,0.00,VWS V14.01,2013-06-09 11:31:00,
2013-06-09 07:32:00,62.5,62.5,30.12,SE,135,0.0,0.0,100,0.00,,,0.00,VWS V14.01,2013-06-09 11:32:00,
2013-06-09 07:33:00,62.3,62.4,30.12,SE,135,0.0,0.0,100,0.00,,,0.00,VWS V14.01,2013-06-09 11:33:00,
2013-06-09 07:34:00,62.5,62.5,30.12,SE,135,0.0,0.0,100,0.00,,,0.00,VWS V14.01,2013-06-09 11:34:00,
2013-06-09 07:37:00,62.5,62.5,30.12,ESE,112,0.0,0.0,100,0.00,,,0.00,VWS V14.01,2013-06-09 11:37:00,
2013-06-09 07:42:00,62.7,62.7,30.15,SSE,158,0.0,0.0,100,0.00,,,0.00,VWS V14.01,2013-06-09 11:42:00,
2013-06-09 07:45:00,62.7,62.7,30.12,SSE,158,0.0,0.0,100,0.00,,,0.00,VWS V14.01,2013-06-09 11:45:00,
2013-06-09 07:47:00,62.9,62.9,30.15,SSE,158,0.0,0.0,100,0.00,,,0.00,VWS V14.01,2013-06-09 11:47:00,
2013-06-09 07:52:00,63.1,63.1,30.15,SE,135,0.0,0.0,100,0.00,,,0.00,VWS V14.01,2013-06-09 11:52:00,
2013-06-09 07:57:00,63.2,63.3,30.15,SE,135,0.0,0.0,100,0.00,,,0.00,VWS V14.01,2013-06-09 11:57:00,
2013-06-09 08:00:00,63.1,63.1,30.15,SE,135,0.0,0.0,100,0.00,,,0.00,VWS V14.01,2013-06-09 12:00:00,
2013-06-09 08:02:00,63.4,63.4,30.15,SSE,158,1.1,1.1,100,0.00,,,0.00,VWS V14.01,2013-06-09 12:02:00,
2013-06-09 08:07:00,63.6,63.6,30.15,SE,135,0.0,0.0,100,0.00,,,0.00,VWS V14.01,2013-06-09 12:07:00,
2013-06-09 08:12:00,63.8,63.8,30.15,SE,135,0.0,0.0,100,0.00,,,0.00,VWS V14.01,2013-06-09 12:12:00,
2013-06-09 08:15:00,63.8,63.8,30.15,South,180,2.0,2.0,100,0.00,,,0.00,VWS V14.01,2013-06-09 12:15:00,
2013-06-09 08:17:00,64.0,64.0,30.15,SSE,158,0.0,0.0,100,0.00,,,0.00,VWS V14.01,2013-06-09 12:17:00,
2013-06-09 08:22:00,64.5,64.5,30.15,East,90,2.0,2.0,100,0.00,,,0.00,VWS V14.01,2013-06-09 12:22:00,
2013-06-09 08:27:00,64.9,64.9,30.15,WNW,292,0.9,0.9,100,0.00,,,0.00,VWS V14.01,2013-06-09 12:27:00,
2013-06-09 08:30:00,64.9,64.9,30.15,WNW,292,0.9,0.9,100,0.00,,,0.00,VWS V14.01,2013-06-09 12:30:00,
2013-06-09 08:32:00,65.8,65.8,30.15,NNW,338,1.1,1.1,100,0.00,,,0.00,VWS V14.01,2013-06-09 12:32:00,
2013-06-09 08:37:00,65.9,66.0,30.15,NNW,338,1.6,1.6,100,0.00,,,0.00,VWS V14.01,2013-06-09 12:37:00,
2013-06-09 08:42:00,66.7,66.7,30.15,NNW,338,2.7,2.7,100,0.00,,,0.00,VWS V14.01,2013-06-09 12:42:00,
2013-06-09 08:45:00,66.3,66.3,30.15,WNW,292,2.5,2.5,100,0.00,,,0.00,VWS V14.01,2013-06-09 12:45:00,
2013-06-09 08:47:00,67.0,64.8,30.15,SE,135,3.8,3.8,92,0.00,,,0.00,VWS V14.01,2013-06-09 12:47:00,
2013-06-09 08:52:00,67.2,65.0,30.15,West,270,0.9,0.9,92,0.00,,,0.00,VWS V14.01,2013-06-09 12:52:00,
2013-06-09 08:57:00,67.9,64.4,30.15,NNW,338,2.2,2.2,88,0.00,,,0.00,VWS V14.01,2013-06-09 12:57:00,
2013-06-09 09:00:00,67.6,64.1,30.15,WNW,292,0.0,0.0,88,0.00,,,0.00,VWS V14.01,2013-06-09 13:00:00,
2013-06-09 09:02:00,68.3,64.4,30.15,NNE,22,1.3,1.3,88,0.00,,,0.00,VWS V14.01,2013-06-09 13:02:00,
2013-06-09 09:07:00,68.8,63.6,30.15,NNW,338,1.1,1.1,84,0.00,,,0.00,VWS V14.01,2013-06-09 13:07:00,
2013-06-09 09:12:00,69.4,63.5,30.18,NW,315,0.0,0.0,82,0.00,,,0.00,VWS V14.01,2013-06-09 13:12:00,
2013-06-09 09:15:00,69.2,63.6,30.15,NW,315,0.0,0.0,82,0.00,,,0.00,VWS V14.01,2013-06-09 13:15:00,
2013-06-09 09:17:00,69.9,61.8,30.18,WNW,292,1.3,1.3,76,0.00,,,0.00,VWS V14.01,2013-06-09 13:17:00,
2013-06-09 09:22:00,70.3,64.0,30.18,SE,135,1.1,1.1,80,0.00,,,0.00,VWS V14.01,2013-06-09 13:22:00,
2013-06-09 09:27:00,71.2,64.9,30.18,SSE,158,2.9,2.9,80,0.00,,,0.00,VWS V14.01,2013-06-09 13:27:00,
2013-06-09 09:30:00,71.2,64.9,30.18,SSE,158,2.9,2.9,80,0.00,,,0.00,VWS V14.01,2013-06-09 13:30:00,
2013-06-09 09:32:00,72.4,59.8,30.15,SSE,158,2.5,2.5,64,0.00,,,0.00,VWS V14.01,2013-06-09 13:32:00,
2013-06-09 09:37:00,73.2,59.1,30.15,South,180,5.8,5.8,62,0.00,,,0.00,VWS V14.01,2013-06-09 13:37:00,
2013-06-09 09:42:00,73.3,58.4,30.15,SSE,158,1.1,1.1,60,0.00,,,0.00,VWS V14.01,2013-06-09 13:42:00,
2013-06-09 09:45:00,73.2,57.8,30.15,WSW,248,1.3,1.3,58,0.00,,,0.00,VWS V14.01,2013-06-09 13:45:00,
2013-06-09 09:47:00,74.1,57.6,30.15,South,180,1.6,1.6,56,0.00,,,0.00,VWS V14.01,2013-06-09 13:47:00,
2013-06-09 09:52:00,74.6,57.1,30.15,WSW,248,4.7,4.7,54,0.00,,,0.00,VWS V14.01,2013-06-09 13:52:00,
2013-06-09 09:57:00,74.6,56.6,30.15,South,180,2.9,2.9,54,0.00,,,0.00,VWS V14.01,2013-06-09 13:57:00,
2013-06-09 10:00:00,74.6,56.6,30.15,SSE,158,5.4,5.4,54,0.00,,,0.00,VWS V14.01,2013-06-09 14:00:00,
2013-06-09 10:02:00,75.1,57.1,30.15,South,180,2.0,2.0,54,0.00,,,0.00,VWS V14.01,2013-06-09 14:02:00,
2013-06-09 10:07:00,75.7,59.1,30.15,South,180,0.9,0.9,56,0.00,,,0.00,VWS V14.01,2013-06-09 14:07:00,
2013-06-09 10:12:00,74.8,58.3,30.15,WNW,292,1.6,1.6,56,0.00,,,0.00,VWS V14.01,2013-06-09 14:12:00,
2013-06-09 10:15:00,75.1,57.6,30.15,WNW,292,2.5,2.5,54,0.00,,,0.00,VWS V14.01,2013-06-09 14:15:00,
2013-06-09 10:17:00,74.9,57.5,30.15,SSW,202,0.0,0.0,54,0.00,,,0.00,VWS V14.01,2013-06-09 14:17:00,
2013-06-09 10:22:00,75.3,57.8,30.15,ESE,112,4.9,4.9,54,0.00,,,0.00,VWS V14.01,2013-06-09 14:22:00,
2013-06-09 10:27:00,75.7,59.6,30.15,East,90,1.3,1.3,58,0.00,,,0.00,VWS V14.01,2013-06-09 14:27:00,
2013-06-09 10:30:00,75.3,57.8,30.15,South,180,0.0,0.0,54,0.00,,,0.00,VWS V14.01,2013-06-09 14:30:00,
2013-06-09 10:32:00,76.0,57.4,30.15,SSE,158,1.6,1.6,52,0.00,,,0.00,VWS V14.01,2013-06-09 14:32:00,
2013-06-09 10:37:00,76.2,57.6,30.15,East,90,2.0,2.0,52,0.00,,,0.00,VWS V14.01,2013-06-09 14:37:00,
2013-06-09 10:42:00,76.8,57.5,30.12,South,180,2.9,2.9,52,0.00,,,0.00,VWS V14.01,2013-06-09 14:42:00,
2013-06-09 10:45:00,76.8,57.5,30.15,South,180,2.9,2.9,52,0.00,,,0.00,VWS V14.01,2013-06-09 14:45:00,
2013-06-09 10:47:00,77.1,57.9,30.12,NW,315,2.0,2.0,52,0.00,,,0.00,VWS V14.01,2013-06-09 14:47:00,
2013-06-09 10:52:00,77.5,57.7,30.12,ESE,112,2.0,2.0,50,0.00,,,0.00,VWS V14.01,2013-06-09 14:52:00,
2013-06-09 10:57:00,77.8,58.0,30.12,ESE,112,2.9,2.9,50,0.00,,,0.00,VWS V14.01,2013-06-09 14:57:00,
2013-06-09 11:02:00,77.1,55.1,30.15,South,180,1.6,1.6,46,0.00,,,0.00,VWS V14.01,2013-06-09 15:02:00,
2013-06-09 11:07:00,76.9,57.2,30.15,WSW,248,0.9,0.9,50,0.00,,,0.00,VWS V14.01,2013-06-09 15:07:00,
2013-06-09 11:12:00,77.3,57.5,30.15,WNW,292,2.5,2.5,50,0.00,,,0.00,VWS V14.01,2013-06-09 15:12:00,
2013-06-09 11:17:00,76.6,56.8,30.12,North,0,0.0,0.0,50,0.00,,,0.00,VWS V14.01,2013-06-09 15:17:00,
2013-06-09 11:22:00,76.6,56.8,30.12,NNW,338,1.3,1.3,50,0.00,,,0.00,VWS V14.01,2013-06-09 15:22:00,
2013-06-09 11:27:00,77.3,55.2,30.12,West,270,4.3,4.3,46,0.00,,,0.00,VWS V14.01,2013-06-09 15:27:00,
2013-06-09 11:30:00,77.3,55.2,30.12,WSW,248,0.0,0.0,46,0.00,,,0.00,VWS V14.01,2013-06-09 15:30:00,
2013-06-09 11:32:00,77.7,55.5,30.12,SW,225,2.5,2.5,46,0.00,,,0.00,VWS V14.01,2013-06-09 15:32:00,
2013-06-09 11:37:00,78.2,58.3,30.12,NW,315,1.6,1.6,50,0.00,,,0.00,VWS V14.01,2013-06-09 15:37:00,
2013-06-09 11:42:00,78.4,55.6,30.09,SSE,158,2.0,2.0,46,0.00,,,0.00,VWS V14.01,2013-06-09 15:42:00,
2013-06-09 11:45:00,78.2,56.0,30.12,SSE,158,1.6,1.6,46,0.00,,,0.00,VWS V14.01,2013-06-09 15:45:00,
2013-06-09 11:47:00,78.7,56.5,30.09,WSW,248,0.0,0.0,46,0.00,,,0.00,VWS V14.01,2013-06-09 15:47:00,
2013-06-09 11:52:00,78.7,56.5,30.09,WSW,248,1.6,1.6,46,0.00,,,0.00,VWS V14.01,2013-06-09 15:52:00,
2013-06-09 11:57:00,79.3,56.4,30.09,North,0,1.3,1.3,46,0.00,,,0.00,VWS V14.01,2013-06-09 15:57:00,
2013-06-09 12:02:00,79.1,55.0,30.09,NW,315,1.6,1.6,44,0.00,,,0.00,VWS V14.01,2013-06-09 16:02:00,
2013-06-09 12:07:00,78.9,55.5,30.09,WNW,292,2.0,2.0,44,0.00,,,0.00,VWS V14.01,2013-06-09 16:07:00,
2013-06-09 12:12:00,80.0,55.8,30.09,East,90,2.5,2.5,44,0.00,,,0.00,VWS V14.01,2013-06-09 16:12:00,
2013-06-09 12:15:00,79.4,59.5,30.09,North,0,1.3,1.3,50,0.00,,,0.00,VWS V14.01,2013-06-09 16:15:00,
2013-06-09 12:17:00,80.5,57.0,30.09,ESE,112,4.0,4.0,44,0.00,,,0.00,VWS V14.01,2013-06-09 16:17:00,
2013-06-09 12:22:00,80.0,55.8,30.09,ESE,112,4.0,4.0,44,0.00,,,0.00,VWS V14.01,2013-06-09 16:22:00,
2013-06-09 12:27:00,79.6,55.5,30.09,NNE,22,3.6,3.6,44,0.00,,,0.00,VWS V14.01,2013-06-09 16:27:00,
2013-06-09 12:30:00,79.6,55.5,30.09,SE,135,6.0,6.0,44,0.00,,,0.00,VWS V14.01,2013-06-09 16:30:00,
2013-06-09 12:32:00,79.3,54.5,30.09,South,180,10.1,10.1,42,0.00,,,0.00,VWS V14.01,2013-06-09 16:32:00,
2013-06-09 12:37:00,78.6,54.5,30.09,South,180,3.4,3.4,44,0.00,,,0.00,VWS V14.01,2013-06-09 16:37:00,
2013-06-09 12:42:00,78.9,54.9,30.06,WNW,292,2.0,2.0,44,0.00,,,0.00,VWS V14.01,2013-06-09 16:42:00,
2013-06-09 12:45:00,78.9,55.5,30.09,South,180,2.0,2.0,44,0.00,,,0.00,VWS V14.01,2013-06-09 16:45:00,
2013-06-09 12:47:00,78.7,55.3,30.06,SSE,158,3.1,3.1,44,0.00,,,0.00,VWS V14.01,2013-06-09 16:47:00,
2013-06-09 12:52:00,78.9,55.5,30.06,SE,135,13.0,13.0,44,0.00,,,0.00,VWS V14.01,2013-06-09 16:52:00,
2013-06-09 12:57:00,79.1,56.3,30.06,NNE,22,1.3,1.3,46,0.00,,,0.00,VWS V14.01,2013-06-09 16:57:00,
2013-06-09 13:00:00,79.1,56.3,30.06,NNE,22,1.3,1.3,46,0.00,,,0.00,VWS V14.01,2013-06-09 17:00:00,
2013-06-09 13:02:00,78.4,55.6,30.09,SSE,158,5.6,5.6,46,0.00,,,0.00,VWS V14.01,2013-06-09 17:02:00,
2013-06-09 13:07:00,78.4,55.6,30.09,SSE,158,2.2,2.2,46,0.00,,,0.00,VWS V14.01,2013-06-09 17:07:00,
2013-06-09 13:12:00,78.6,55.8,30.09,SSE,158,3.4,3.4,46,0.00,,,0.00,VWS V14.01,2013-06-09 17:12:00,
2013-06-09 13:15:00,78.6,55.8,30.09,SSE,158,3.4,3.4,46,0.00,,,0.00,VWS V14.01,2013-06-09 17:15:00,
2013-06-09 13:17:00,78.4,55.6,30.09,SSE,158,3.4,3.4,46,0.00,,,0.00,VWS V14.01,2013-06-09 17:17:00,
2013-06-09 13:22:00,79.3,56.4,30.09,SSW,202,2.0,2.0,46,0.00,,,0.00,VWS V14.01,2013-06-09 17:22:00,
2013-06-09 13:27:00,79.3,56.4,30.09,SSE,158,1.6,1.6,46,0.00,,,0.00,VWS V14.01,2013-06-09 17:27:00,
2013-06-09 13:30:00,79.3,55.8,30.09,SSW,202,3.1,3.1,44,0.00,,,0.00,VWS V14.01,2013-06-09 17:30:00,
2013-06-09 13:32:00,78.6,55.2,30.09,South,180,5.6,5.6,44,0.00,,,0.00,VWS V14.01,2013-06-09 17:32:00,
2013-06-09 13:37:00,78.9,56.1,30.09,SE,135,6.5,6.5,46,0.00,,,0.00,VWS V14.01,2013-06-09 17:37:00,
2013-06-09 13:42:00,78.6,56.4,30.09,SW,225,1.1,1.1,46,0.00,,,0.00,VWS V14.01,2013-06-09 17:42:00,
2013-06-09 13:45:00,78.6,56.4,30.09,WSW,248,1.6,1.6,46,0.00,,,0.00,VWS V14.01,2013-06-09 17:45:00,
2013-06-09 13:47:00,79.6,57.3,30.09,SSE,158,4.9,4.9,46,0.00,,,0.00,VWS V14.01,2013-06-09 17:47:00,
2013-06-09 13:52:00,79.8,56.3,30.09,South,180,2.9,2.9,44,0.00,,,0.00,VWS V14.01,2013-06-09 17:52:00,
2013-06-09 13:57:00,79.4,55.3,30.06,South,180,2.9,2.9,44,0.00,,,0.00,VWS V14.01,2013-06-09 17:57:00,
2013-06-09 14:00:00,79.6,56.8,30.09,South,180,2.9,2.9,46,0.00,,,0.00,VWS V14.01,2013-06-09 18:00:00,
2013-06-09 14:02:00,79.3,55.2,30.06,South,180,4.7,4.7,44,0.00,,,0.00,VWS V14.01,2013-06-09 18:02:00,
2013-06-09 14:07:00,79.3,55.8,30.06,SE,135,5.8,5.8,44,0.00,,,0.00,VWS V14.01,2013-06-09 18:07:00,
2013-06-09 14:12:00,78.7,55.3,30.06,South,180,9.6,9.6,44,0.00,,,0.00,VWS V14.01,2013-06-09 18:12:00,
2013-06-09 14:15:00,79.3,56.4,30.06,SSE,158,6.0,6.0,46,0.00,,,0.00,VWS V14.01,2013-06-09 18:15:00,
2013-06-09 14:17:00,78.2,55.4,30.06,SSE,158,3.4,3.4,46,0.00,,,0.00,VWS V14.01,2013-06-09 18:17:00,
2013-06-09 14:22:00,78.6,56.4,30.06,SSE,158,4.7,4.7,46,0.00,,,0.00,VWS V14.01,2013-06-09 18:22:00,
2013-06-09 14:27:00,78.9,56.1,30.06,SSE,158,4.7,4.7,46,0.00,,,0.00,VWS V14.01,2013-06-09 18:27:00,
2013-06-09 14:30:00,78.7,56.5,30.06,SSE,158,4.7,4.7,46,0.00,,,0.00,VWS V14.01,2013-06-09 18:30:00,
2013-06-09 14:32:00,79.1,56.9,30.06,NNW,338,2.7,2.7,46,0.00,,,0.00,VWS V14.01,2013-06-09 18:32:00,
2013-06-09 14:37:00,78.6,56.4,30.06,ESE,112,3.6,3.6,46,0.00,,,0.00,VWS V14.01,2013-06-09 18:37:00,
2013-06-09 14:42:00,78.2,56.6,30.06,SW,225,2.9,2.9,48,0.00,,,0.00,VWS V14.01,2013-06-09 18:42:00,
2013-06-09 14:47:00,77.5,56.5,30.06,SW,225,2.2,2.2,48,0.00,,,0.00,VWS V14.01,2013-06-09 18:47:00,
2013-06-09 14:52:00,76.8,56.5,30.06,South,180,3.1,3.1,50,0.00,,,0.00,VWS V14.01,2013-06-09 18:52:00,
2013-06-09 14:57:00,76.4,57.2,30.06,West,270,2.0,2.0,52,0.00,,,0.00,VWS V14.01,2013-06-09 18:57:00,
2013-06-09 15:00:00,76.4,57.2,30.06,SSE,158,2.9,2.9,52,0.00,,,0.00,VWS V14.01,2013-06-09 19:00:00,
2013-06-09 15:02:00,75.3,56.2,30.06,SSE,158,8.7,8.7,52,0.00,,,0.00,VWS V14.01,2013-06-09 19:02:00,
2013-06-09 15:07:00,74.2,56.3,30.06,SE,135,2.9,2.9,54,0.00,,,0.00,VWS V14.01,2013-06-09 19:07:00,
2013-06-09 15:12:00,73.2,59.6,30.06,South,180,2.0,2.0,62,0.00,,,0.00,VWS V14.01,2013-06-09 19:12:00,
2013-06-09 15:15:00,73.5,58.1,30.06,SE,135,3.1,3.1,58,0.00,,,0.00,VWS V14.01,2013-06-09 19:15:00,
2013-06-09 15:17:00,72.6,60.4,30.06,SE,135,1.3,1.3,66,0.00,,,0.00,VWS V14.01,2013-06-09 19:17:00,
2013-06-09 15:22:00,72.6,63.3,30.06,WSW,248,1.3,1.3,72,0.00,,,0.00,VWS V14.01,2013-06-09 19:22:00,
2013-06-09 15:27:00,73.0,60.3,30.06,South,180,2.2,2.2,64,0.00,,,0.00,VWS V14.01,2013-06-09 19:27:00,
2013-06-09 15:30:00,72.4,59.8,30.06,South,180,3.8,3.8,64,0.00,,,0.00,VWS V14.01,2013-06-09 19:30:00,
2013-06-09 15:32:00,73.3,58.4,30.06,SSW,202,3.6,3.6,60,0.00,,,0.00,VWS V14.01,2013-06-09 19:32:00,
2013-06-09 15:37:00,73.5,59.9,30.06,South,180,2.5,2.5,62,0.00,,,0.00,VWS V14.01,2013-06-09 19:37:00,
2013-06-09 15:42:00,73.7,59.7,30.06,South,180,1.1,1.1,62,0.00,,,0.00,VWS V14.01,2013-06-09 19:42:00,
2013-06-09 15:45:00,73.5,59.5,30.06,SSW,202,2.7,2.7,62,0.00,,,0.00,VWS V14.01,2013-06-09 19:45:00,
2013-06-09 15:47:00,74.2,60.6,30.06,SSE,158,2.9,2.9,62,0.00,,,0.00,VWS V14.01,2013-06-09 19:47:00,
2013-06-09 15:52:00,74.2,61.1,30.06,South,180,1.3,1.3,64,0.00,,,0.00,VWS V14.01,2013-06-09 19:52:00,
2013-06-09 15:57:00,74.6,60.5,30.06,South,180,0.0,0.0,62,0.00,,,0.00,VWS V14.01,2013-06-09 19:57:00,
2013-06-09 16:00:00,74.4,58.9,30.06,South,180,2.2,2.2,58,0.00,,,0.00,VWS V14.01,2013-06-09 20:00:00,
2013-06-09 16:02:00,74.6,57.6,30.06,South,180,2.0,2.0,56,0.00,,,0.00,VWS V14.01,2013-06-09 20:02:00,
2013-06-09 16:07:00,75.1,57.6,30.06,SSW,202,3.1,3.1,54,0.00,,,0.00,VWS V14.01,2013-06-09 20:07:00,
2013-06-09 16:12:00,75.7,59.1,30.06,SSE,158,0.0,0.0,56,0.00,,,0.00,VWS V14.01,2013-06-09 20:12:00,
2013-06-09 16:15:00,75.5,59.0,30.06,SSW,202,3.1,3.1,56,0.00,,,0.00,VWS V14.01,2013-06-09 20:15:00,
2013-06-09 16:17:00,75.8,58.3,30.06,SSW,202,2.5,2.5,54,0.00,,,0.00,VWS V14.01,2013-06-09 20:17:00,
2013-06-09 16:22:00,75.8,58.3,30.06,SW,225,2.9,2.9,54,0.00,,,0.00,VWS V14.01,2013-06-09 20:22:00,
2013-06-09 16:27:00,75.7,57.6,30.06,SE,135,3.4,3.4,54,0.00,,,0.00,VWS V14.01,2013-06-09 20:27:00,
2013-06-09 16:30:00,75.8,58.8,30.06,SE,135,3.4,3.4,56,0.00,,,0.00,VWS V14.01,2013-06-09 20:30:00,
2013-06-09 16:32:00,76.0,59.0,30.06,South,180,1.3,1.3,56,0.00,,,0.00,VWS V14.01,2013-06-09 20:32:00,
2013-06-09 16:37:00,75.8,57.8,30.06,South,180,2.5,2.5,54,0.00,,,0.00,VWS V14.01,2013-06-09 20:37:00,
2013-06-09 16:42:00,76.0,57.9,30.03,South,180,2.9,2.9,54,0.00,,,0.00,VWS V14.01,2013-06-09 20:42:00,
2013-06-09 16:45:00,76.0,58.5,30.06,South,180,2.9,2.9,54,0.00,,,0.00,VWS V14.01,2013-06-09 20:45:00,
2013-06-09 16:47:00,76.4,58.3,30.03,South,180,2.9,2.9,54,0.00,,,0.00,VWS V14.01,2013-06-09 20:47:00,
2013-06-09 16:52:00,76.4,57.8,30.03,SSE,158,6.5,6.5,52,0.00,,,0.00,VWS V14.01,2013-06-09 20:52:00,
2013-06-09 16:57:00,76.0,57.4,30.03,SSE,158,6.5,6.5,52,0.00,,,0.00,VWS V14.01,2013-06-09 20:57:00,
2013-06-09 17:00:00,76.2,57.6,30.03,SSE,158,6.5,6.5,52,0.00,,,0.00,VWS V14.01,2013-06-09 21:00:00,
2013-06-09 17:02:00,75.8,57.2,30.03,SSE,158,6.5,6.5,52,0.00,,,0.00,VWS V14.01,2013-06-09 21:02:00,
2013-06-09 17:07:00,75.5,56.9,30.03,SSE,158,6.5,6.5,52,0.00,,,0.00,VWS V14.01,2013-06-09 21:07:00,
2013-06-09 17:12:00,75.3,56.8,30.06,SSE,158,6.5,6.5,52,0.00,,,0.00,VWS V14.01,2013-06-09 21:12:00,
2013-06-09 17:15:00,75.5,57.4,30.03,SSE,158,6.5,6.5,54,0.00,,,0.00,VWS V14.01,2013-06-09 21:15:00,
2013-06-09 17:17:00,74.9,56.4,30.06,SSE,158,6.5,6.5,52,0.00,,,0.00,VWS V14.01,2013-06-09 21:17:00,
2013-06-09 17:22:00,74.9,56.9,30.06,SSE,158,6.5,6.5,54,0.00,,,0.00,VWS V14.01,2013-06-09 21:22:00,
2013-06-09 17:27:00,74.8,57.3,30.06,SSE,158,6.5,6.5,54,0.00,,,0.00,VWS V14.01,2013-06-09 21:27:00,
2013-06-09 17:30:00,74.8,56.3,30.06,SSE,158,6.5,6.5,52,0.00,,,0.00,VWS V14.01,2013-06-09 21:30:00,
2013-06-09 17:32:00,74.4,55.9,30.06,ESE,112,2.7,2.7,52,0.00,,,0.00,VWS V14.01,2013-06-09 21:32:00,
2013-06-09 17:37:00,74.1,56.1,30.06,SSE,158,0.0,0.0,54,0.00,,,0.00,VWS V14.01,2013-06-09 21:37:00,
2013-06-09 17:42:00,73.9,56.5,30.06,SSE,158,2.9,2.9,54,0.00,,,0.00,VWS V14.01,2013-06-09 21:42:00,
2013-06-09 17:45:00,74.1,56.6,30.06,SSE,158,0.0,0.0,54,0.00,,,0.00,VWS V14.01,2013-06-09 21:45:00,
2013-06-09 17:47:00,73.0,56.1,30.06,SSE,158,2.9,2.9,56,0.00,,,0.00,VWS V14.01,2013-06-09 21:47:00,
2013-06-09 17:52:00,72.1,57.2,30.06,South,180,2.2,2.2,60,0.00,,,0.00,VWS V14.01,2013-06-09 21:52:00,
2013-06-09 17:57:00,71.2,57.7,30.06,SE,135,3.8,3.8,62,0.00,,,0.00,VWS V14.01,2013-06-09 21:57:00,
2013-06-09 18:00:00,71.5,58.1,30.06,SSE,158,5.8,5.8,62,0.00,,,0.00,VWS V14.01,2013-06-09 22:00:00,
2013-06-09 18:02:00,70.8,58.3,30.06,WSW,248,2.7,2.7,64,0.00,,,0.00,VWS V14.01,2013-06-09 22:02:00,
2013-06-09 18:07:00,70.6,60.2,30.06,South,180,2.5,2.5,70,0.00,,,0.00,VWS V14.01,2013-06-09 22:07:00,
2013-06-09 18:12:00,70.6,58.1,30.06,SSE,158,3.1,3.1,64,0.00,,,0.00,VWS V14.01,2013-06-09 22:12:00,
2013-06-09 18:15:00,70.6,58.1,30.06,SSE,158,3.1,3.1,64,0.00,,,0.00,VWS V14.01,2013-06-09 22:15:00,
2013-06-09 18:17:00,71.0,57.1,30.06,SSE,158,3.4,3.4,62,0.00,,,0.00,VWS V14.01,2013-06-09 22:17:00,
2013-06-09 18:22:00,71.0,58.9,30.06,SSE,158,0.0,0.0,66,0.00,,,0.00,VWS V14.01,2013-06-09 22:22:00,
2013-06-09 18:27:00,70.4,58.3,30.06,South,180,1.3,1.3,66,0.00,,,0.00,VWS V14.01,2013-06-09 22:27:00,
2013-06-09 18:30:00,70.4,60.0,30.06,South,180,1.3,1.3,70,0.00,,,0.00,VWS V14.01,2013-06-09 22:30:00,
2013-06-09 18:32:00,70.4,60.0,30.06,South,180,5.6,5.6,70,0.00,,,0.00,VWS V14.01,2013-06-09 22:32:00,
2013-06-09 18:37:00,70.6,59.8,30.06,South,180,5.6,5.6,68,0.00,,,0.00,VWS V14.01,2013-06-09 22:37:00,
2013-06-09 18:42:00,70.6,59.4,30.06,South,180,5.6,5.6,68,0.00,,,0.00,VWS V14.01,2013-06-09 22:42:00,
2013-06-09 18:45:00,70.6,59.4,30.06,South,180,5.6,5.6,68,0.00,,,0.00,VWS V14.01,2013-06-09 22:45:00,
2013-06-09 18:47:00,70.8,57.4,30.06,WSW,248,3.1,3.1,62,0.00,,,0.00,VWS V14.01,2013-06-09 22:47:00,
2013-06-09 18:52:00,71.0,56.7,30.06,NNW,338,0.0,0.0,60,0.00,,,0.00,VWS V14.01,2013-06-09 22:52:00,
2013-06-09 18:57:00,71.0,58.0,30.06,NNW,338,0.0,0.0,64,0.00,,,0.00,VWS V14.01,2013-06-09 22:57:00,
2013-06-09 19:00:00,71.0,56.7,30.06,NNW,338,0.0,0.0,60,0.00,,,0.00,VWS V14.01,2013-06-09 23:00:00,
2013-06-09 19:02:00,70.6,56.8,30.06,NNW,338,0.0,0.0,62,0.00,,,0.00,VWS V14.01,2013-06-09 23:02:00,
2013-06-09 19:07:00,70.6,58.1,30.06,SSW,202,2.0,2.0,64,0.00,,,0.00,VWS V14.01,2013-06-09 23:07:00,
2013-06-09 19:12:00,70.4,57.0,30.06,SSE,158,1.1,1.1,62,0.00,,,0.00,VWS V14.01,2013-06-09 23:12:00,
2013-06-09 19:15:00,70.3,57.8,30.06,SSW,202,2.0,2.0,64,0.00,,,0.00,VWS V14.01,2013-06-09 23:15:00,
2013-06-09 19:17:00,70.3,58.2,30.06,South,180,1.1,1.1,66,0.00,,,0.00,VWS V14.01,2013-06-09 23:17:00,
2013-06-09 19:22:00,69.9,57.8,30.06,SE,135,3.1,3.1,66,0.04,,,0.04,VWS V14.01,2013-06-09 23:22:00,
2013-06-09 19:27:00,70.1,57.2,30.06,SE,135,2.0,2.0,64,0.04,,,0.04,VWS V14.01,2013-06-09 23:27:00,
2013-06-09 19:32:00,69.2,59.2,30.06,South,180,2.9,2.9,70,0.04,,,0.04,VWS V14.01,2013-06-09 23:32:00,
2013-06-09 19:37:00,69.6,57.9,30.06,SE,135,2.9,2.9,66,0.04,,,0.04,VWS V14.01,2013-06-09 23:37:00,
2013-06-09 19:42:00,69.2,58.0,30.06,SSE,158,6.0,6.0,68,0.04,,,0.04,VWS V14.01,2013-06-09 23:42:00,
2013-06-09 19:45:00,69.4,57.8,30.06,SSW,202,0.9,0.9,66,0.04,,,0.04,VWS V14.01,2013-06-09 23:45:00,
2013-06-09 19:47:00,68.7,59.1,30.06,SSE,158,2.9,2.9,72,0.04,,,0.04,VWS V14.01,2013-06-09 23:47:00,
2013-06-09 19:52:00,68.7,59.8,30.06,SSW,202,2.5,2.5,74,0.04,,,0.04,VWS V14.01,2013-06-09 23:52:00,
2013-06-09 19:57:00,68.5,60.1,30.06,SW,225,2.0,2.0,74,0.04,,,0.04,VWS V14.01,2013-06-09 23:57:00,
2013-06-09 20:00:00,68.5,60.1,30.06,WSW,248,2.9,2.9,74,0.04,,,0.04,VWS V14.01,2013-06-10 00:00:00,
2013-06-09 20:02:00,68.7,60.2,30.06,SSW,202,0.0,0.0,74,0.04,,,0.04,VWS V14.01,2013-06-10 00:02:00,
2013-06-09 20:07:00,68.8,59.2,30.06,SSE,158,3.4,3.4,72,0.04,,,0.04,VWS V14.01,2013-06-10 00:07:00,
2013-06-09 20:12:00,69.0,59.4,30.06,SE,135,4.3,4.3,72,0.04,,,0.04,VWS V14.01,2013-06-10 00:12:00,
2013-06-09 20:15:00,69.0,59.0,30.06,SE,135,2.9,2.9,70,0.04,,,0.04,VWS V14.01,2013-06-10 00:15:00,
2013-06-09 20:17:00,68.8,58.9,30.06,SSE,158,7.4,7.4,70,0.04,,,0.04,VWS V14.01,2013-06-10 00:17:00,
2013-06-09 20:22:00,69.2,58.8,30.06,East,90,3.4,3.4,70,0.04,,,0.04,VWS V14.01,2013-06-10 00:22:00,
2013-06-09 20:27:00,69.0,58.6,30.09,SSE,158,1.6,1.6,70,0.00,,,0.04,VWS V14.01,2013-06-10 00:27:00,
2013-06-09 20:30:00,69.4,59.0,30.06,NNW,338,4.3,4.3,70,0.04,,,0.04,VWS V14.01,2013-06-10 00:30:00,
2013-06-09 20:32:00,68.8,59.2,30.09,SE,135,9.6,9.6,72,0.00,,,0.04,VWS V14.01,2013-06-10 00:32:00,
2013-06-09 20:37:00,69.2,58.8,30.09,East,90,2.5,2.5,70,0.00,,,0.04,VWS V14.01,2013-06-10 00:37:00,
2013-06-09 20:42:00,69.0,59.0,30.06,SE,135,4.0,4.0,70,0.00,,,0.04,VWS V14.01,2013-06-10 00:42:00,
2013-06-09 20:45:00,69.0,59.0,30.09,SE,135,3.4,3.4,70,0.00,,,0.04,VWS V14.01,2013-06-10 00:45:00,
2013-06-09 20:47:00,68.8,58.9,30.06,SSW,202,4.3,4.3,70,0.00,,,0.04,VWS V14.01,2013-06-10 00:47:00,
2013-06-09 20:52:00,68.8,59.2,30.06,SE,135,6.5,6.5,72,0.00,,,0.04,VWS V14.01,2013-06-10 00:52:00,
2013-06-09 20:57:00,68.7,60.6,30.06,SE,135,0.0,0.0,76,0.04,,,0.08,VWS V14.01,2013-06-10 00:57:00,
2013-06-09 21:00:00,68.7,59.8,30.06,SSW,202,2.0,2.0,74,0.00,,,0.04,VWS V14.01,2013-06-10 01:00:00,
2013-06-09 21:02:00,68.3,61.0,30.06,South,180,2.5,2.5,78,0.09,,,0.13,VWS V14.01,2013-06-10 01:02:00,
2013-06-09 21:07:00,67.9,62.1,30.06,South,180,2.7,2.7,82,0.12,,,0.16,VWS V14.01,2013-06-10 01:07:00,
2013-06-09 21:12:00,67.6,63.1,30.06,SE,135,0.0,0.0,86,0.21,,,0.25,VWS V14.01,2013-06-10 01:12:00,
2013-06-09 21:15:00,67.6,62.7,30.06,SSW,202,0.0,0.0,84,0.17,,,0.21,VWS V14.01,2013-06-10 01:15:00,
2013-06-09 21:17:00,67.6,63.1,30.06,SSW,202,1.1,1.1,86,0.21,,,0.25,VWS V14.01,2013-06-10 01:17:00,
2013-06-09 21:22:00,67.8,62.9,30.06,SSE,158,2.5,2.5,84,0.21,,,0.25,VWS V14.01,2013-06-10 01:22:00,
2013-06-09 21:27:00,67.6,63.1,30.06,SE,135,2.7,2.7,86,0.21,,,0.25,VWS V14.01,2013-06-10 01:27:00,
2013-06-09 21:32:00,67.8,62.9,30.06,SE,135,3.4,3.4,84,0.21,,,0.25,VWS V14.01,2013-06-10 01:32:00,
2013-06-09 21:37:00,67.8,62.6,30.06,SSE,158,5.4,5.4,84,0.21,,,0.25,VWS V14.01,2013-06-10 01:37:00,
2013-06-09 21:42:00,67.9,62.1,30.06,SSE,158,3.8,3.8,82,0.21,,,0.25,VWS V14.01,2013-06-10 01:42:00,
2013-06-09 21:45:00,68.1,61.9,30.06,SE,135,4.3,4.3,80,0.21,,,0.25,VWS V14.01,2013-06-10 01:45:00,
2013-06-09 21:47:00,68.5,60.8,30.06,South,180,8.1,8.1,76,0.21,,,0.25,VWS V14.01,2013-06-10 01:47:00,
2013-06-09 21:52:00,68.5,60.8,30.06,SSE,158,6.3,6.3,76,0.21,,,0.25,VWS V14.01,2013-06-10 01:52:00,
2013-06-09 21:57:00,68.5,60.8,30.06,NNE,22,2.5,2.5,76,0.21,,,0.25,VWS V14.01,2013-06-10 01:57:00,
2013-06-09 22:00:00,68.5,60.8,30.06,SSW,202,3.6,3.6,76,0.21,,,0.25,VWS V14.01,2013-06-10 02:00:00,
2013-06-09 22:02:00,68.8,61.2,30.06,WSW,248,1.1,1.1,76,0.21,,,0.25,VWS V14.01,2013-06-10 02:02:00,
2013-06-09 22:07:00,68.3,61.7,30.06,SSE,158,2.9,2.9,80,0.21,,,0.25,VWS V14.01,2013-06-10 02:07:00,
2013-06-09 22:12:00,67.9,62.4,30.06,SSE,158,2.7,2.7,82,0.04,,,0.25,VWS V14.01,2013-06-10 02:12:00,
2013-06-09 22:15:00,68.1,62.6,30.06,SSE,158,0.9,0.9,82,0.21,,,0.25,VWS V14.01,2013-06-10 02:15:00,
2013-06-09 22:17:00,67.9,62.4,30.06,SSE,158,1.1,1.1,82,0.04,,,0.25,VWS V14.01,2013-06-10 02:17:00,
2013-06-09 22:22:00,67.8,63.2,30.06,South,180,1.1,1.1,86,0.08,,,0.29,VWS V14.01,2013-06-10 02:22:00,
2013-06-09 22:27:00,67.4,64.2,30.06,SE,135,3.1,3.1,90,0.04,,,0.29,VWS V14.01,2013-06-10 02:27:00,
2013-06-09 22:30:00,67.4,64.2,30.06,South,180,0.0,0.0,90,0.08,,,0.29,VWS V14.01,2013-06-10 02:30:00,
2013-06-09 22:32:00,67.6,63.4,30.06,WNW,292,0.9,0.9,86,0.04,,,0.29,VWS V14.01,2013-06-10 02:32:00,
2013-06-09 22:37:00,67.6,64.4,30.06,WSW,248,1.6,1.6,90,0.04,,,0.29,VWS V14.01,2013-06-10 02:37:00,
2013-06-09 22:42:00,67.2,64.7,30.06,West,270,0.0,0.0,92,0.04,,,0.29,VWS V14.01,2013-06-10 02:42:00,
2013-06-09 22:47:00,67.0,65.1,30.06,WNW,292,2.7,2.7,94,0.04,,,0.29,VWS V14.01,2013-06-10 02:47:00,
2013-06-09 22:52:00,67.4,63.6,30.06,WNW,292,1.6,1.6,88,0.04,,,0.29,VWS V14.01,2013-06-10 02:52:00,
2013-06-09 22:57:00,67.6,63.7,30.06,SW,225,3.4,3.4,88,0.04,,,0.29,VWS V14.01,2013-06-10 02:57:00,
2013-06-09 23:00:00,67.6,64.7,30.06,SSW,202,1.1,1.1,90,0.04,,,0.29,VWS V14.01,2013-06-10 03:00:00,
2013-06-09 23:02:00,68.5,61.9,30.06,SE,135,5.4,5.4,80,0.04,,,0.29,VWS V14.01,2013-06-10 03:02:00,
2013-06-09 23:07:00,69.0,61.0,30.06,SW,225,2.5,2.5,76,0.04,,,0.29,VWS V14.01,2013-06-10 03:07:00,
2013-06-09 23:12:00,68.8,61.5,30.06,West,270,2.7,2.7,78,0.04,,,0.29,VWS V14.01,2013-06-10 03:12:00,
2013-06-09 23:15:00,68.8,60.0,30.06,SSW,202,2.7,2.7,74,0.04,,,0.29,VWS V14.01,2013-06-10 03:15:00,
2013-06-09 23:17:00,67.9,63.4,30.06,SSE,158,2.2,2.2,86,0.04,,,0.29,VWS V14.01,2013-06-10 03:17:00,
2013-06-09 23:22:00,67.8,63.2,30.06,SSW,202,2.0,2.0,86,0.04,,,0.29,VWS V14.01,2013-06-10 03:22:00,
2013-06-09 23:27:00,67.6,63.4,30.03,SE,135,4.0,4.0,86,0.00,,,0.29,VWS V14.01,2013-06-10 03:27:00,
2013-06-09 23:30:00,67.6,63.4,30.06,South,180,2.9,2.9,86,0.04,,,0.29,VWS V14.01,2013-06-10 03:30:00,
2013-06-09 23:32:00,67.8,63.9,30.03,WSW,248,1.1,1.1,88,0.00,,,0.29,VWS V14.01,2013-06-10 03:32:00,
2013-06-09 23:37:00,67.8,63.2,30.03,SE,135,1.3,1.3,86,0.04,,,0.33,VWS V14.01,2013-06-10 03:37:00,
2013-06-09 23:42:00,67.6,62.4,30.06,SSE,158,2.9,2.9,84,0.08,,,0.37,VWS V14.01,2013-06-10 03:42:00,
2013-06-09 23:45:00,67.8,62.6,30.03,South,180,2.2,2.2,84,0.08,,,0.37,VWS V14.01,2013-06-10 03:45:00,
2013-06-09 23:47:00,67.8,62.2,30.06,SSE,158,2.5,2.5,82,0.08,,,0.37,VWS V14.01,2013-06-10 03:47:00,
2013-06-09 23:52:00,67.6,62.1,30.06,SW,225,0.9,0.9,82,0.08,,,0.37,VWS V14.01,2013-06-10 03:52:00,
2013-06-09 23:57:00,68.1,61.5,30.06,SSE,158,2.9,2.9,80,0.08,,,0.00,VWS V14.01,2013-06-10 03:57:00,